Latest Weather Observations for Gove Airport

IDD60801

Issued at 2:35 am CST Thursday 24 April 2014 (issued every 30 minutes, with the page automatically refreshed every 10 minutes)

About weather observations | Map of weather stations | Latest weather observations for NT | Other Formats
Station Details ID: 014508 Name: GOVE AIRPORT Lat: -12.27 Lon: 136.82 Height: 51.6 m
Data from the previous 72 hours. | See also: Recent months at Gove Airport
Date/Time
CST
Temp
°C
App
Temp
°C
Dew
Point
Rel
Hum
%
Delta-T
°C
Wind Press
QNH
hPa
Press
MSL
hPa
Rain
since 9 am
mm
Dir
 
Spd
km/h
Gust
km/h
Spd
kts
Gust
kts
24/02:30am 23.7 28.4 23.3 98 0.3 E 4 11 2 6 1006.9 - 42.6
24/02:05am 23.7 28.0 23.3 98 0.3 SW 6 9 3 5 1007.2 - 42.6
24/02:00am 23.8 28.0 23.4 98 0.3 WNW 7 13 4 7 1007.7 - 42.6
24/01:50am 23.9 26.9 23.3 96 0.4 NNW 13 20 7 11 1008.3 - 42.4
24/01:38am 23.9 26.1 23.2 96 0.5 N 17 22 9 12 1008.7 - 40.4
24/01:30am 23.9 28.1 23.2 96 0.5 W 6 9 3 5 1008.6 - 40.0
24/01:12am 24.1 29.4 23.7 98 0.3 W 2 9 1 5 1008.7 - 40.0
24/01:00am 24.2 29.2 23.8 98 0.3 W 4 11 2 6 1008.8 - 40.0
24/12:30am 24.3 28.8 23.9 98 0.3 W 7 15 4 8 1008.9 - 40.0
24/12:00am 24.3 28.8 23.9 98 0.3 WSW 7 9 4 5 1009.2 1008.8 40.0
 
Date/Time
CST
Temp
°C
App
Temp
°C
Dew
Point
Rel
Hum
%
Delta-T
°C
Wind Press
QNH
hPa
Press
MSL
hPa
Rain
since 9 am
mm
Dir
 
Spd
km/h
Gust
km/h
Spd
kts
Gust
kts
23/11:30pm 24.2 28.3 23.9 98 0.2 SW 9 11 5 6 1009.7 - 39.8
23/11:00pm 24.3 28.6 23.7 96 0.4 SSE 7 9 4 5 1009.7 - 39.8
23/10:42pm 24.3 28.6 23.7 96 0.4 ESE 7 11 4 6 1010.0 - 39.6
23/10:30pm 24.3 27.1 23.7 96 0.4 E 15 17 8 9 1009.8 - 39.2
23/10:12pm 24.3 28.3 23.7 96 0.4 S 9 15 5 8 1010.4 - 39.0
23/10:00pm 24.3 28.8 23.7 96 0.4 SW 6 11 3 6 1010.7 - 38.8
23/09:41pm 24.5 29.5 23.9 96 0.4 SE 4 13 2 7 1010.6 - 37.4
23/09:30pm 24.7 29.7 23.8 95 0.6 SSW 4 13 2 7 1010.5 - 35.6
23/09:21pm 24.9 30.5 24.2 96 0.5 NNW 2 7 1 4 1010.7 - 31.6
23/09:00pm 25.0 28.8 24.0 94 0.7 ESE 11 15 6 8 1010.5 1010.1 26.2
23/08:47pm 25.1 29.4 24.2 95 0.6 ESE 9 15 5 8 1010.4 - 24.4
23/08:40pm 25.1 29.7 24.2 95 0.6 SE 7 15 4 8 1010.1 - 23.4
23/08:30pm 25.3 30.2 24.3 94 0.7 ESE 6 11 3 6 1009.9 - 23.2
23/08:23pm 25.3 29.5 24.1 93 0.8 SE 9 13 5 7 1009.6 - 23.0
23/08:10pm 25.1 30.1 24.5 96 0.4 NE 6 11 3 6 1009.8 - 20.6
23/08:00pm 25.0 29.9 24.4 96 0.4 ENE 6 11 3 6 1009.3 - 16.6
23/07:39pm 24.9 29.5 24.2 96 0.5 NE 7 11 4 6 1008.9 - 14.6
23/07:30pm 25.0 29.7 24.3 96 0.5 E 7 9 4 5 1008.8 - 12.2
23/07:00pm 25.3 30.1 24.1 93 0.8 NE 6 9 3 5 1008.0 - 12.2
23/06:50pm 25.3 29.9 24.1 93 0.8 ESE 7 13 4 7 1007.8 - 12.2
23/06:43pm 25.3 29.4 24.0 92 0.9 E 9 13 5 7 1008.0 - 12.0
23/06:30pm 25.1 28.5 24.1 94 0.7 NNE 13 20 7 11 1008.1 - 9.0
23/06:26pm 26.2 31.6 25.5 96 0.5 NNE 7 13 4 7 1008.1 - 5.2
23/05:30pm 26.8 31.8 25.4 92 1.0 ESE 9 11 5 6 1007.6 - 1.8
23/05:00pm 27.4 31.8 25.1 87 1.6 E 11 15 6 8 1007.4 - 1.6
23/04:30pm 28.0 31.9 24.9 83 2.2 ESE 13 15 7 8 1007.2 - 1.6
23/04:00pm 28.1 32.9 25.1 84 2.1 E 9 11 5 6 1006.9 - 1.6
23/03:30pm 28.2 33.8 25.4 85 2.0 NE 6 9 3 5 1006.8 - 1.6
23/03:00pm 28.0 34.6 25.2 85 2.0 CALM 0 0 0 0 1007.1 1006.8 1.6
23/02:30pm 27.4 33.9 25.1 87 1.6 CALM 0 0 0 0 1007.5 - 1.6
23/02:00pm 26.9 33.4 25.0 89 1.3 CALM 0 0 0 0 1007.9 - 1.6
23/01:30pm 26.4 32.4 24.8 91 1.1 S 2 7 1 4 1008.2 - 1.6
23/01:00pm 26.1 32.2 25.0 94 0.8 S 2 7 1 4 1008.2 - 1.6
23/12:30pm 25.8 31.0 24.8 94 0.7 S 6 9 3 5 1008.9 - 1.6
23/12:00pm 25.7 31.2 24.7 94 0.7 S 4 7 2 4 1009.6 1009.2 1.6
23/11:30am 25.7 30.6 24.7 94 0.7 SW 7 11 4 6 1010.1 - 1.6
23/11:00am 25.5 30.6 24.6 95 0.6 SSW 6 9 3 5 1010.7 - 1.6
23/10:50am 25.5 29.6 24.5 94 0.7 SW 11 17 6 9 1011.0 - 1.4
23/10:44am 25.6 30.2 24.7 95 0.6 WSW 9 15 5 8 1010.8 - 1.4
23/10:30am 25.9 31.0 25.0 95 0.6 W 7 11 4 6 1010.7 - 1.4
23/10:20am 25.9 31.0 24.9 94 0.7 WNW 7 13 4 7 1011.0 - 1.4
23/10:00am 26.2 30.2 25.1 94 0.8 WNW 13 24 7 13 1010.7 - 0.8
23/09:41am 27.2 33.8 25.8 92 1.0 SW 2 7 1 4 1010.9 - 0.2
23/09:30am 27.5 33.3 25.8 90 1.2 SSE 6 7 3 4 1010.8 - 0.2
23/09:00am 27.4 33.1 25.6 90 1.3 SSE 6 6 3 3 1010.6 1010.2 17.4
23/08:30am 26.8 33.3 25.1 90 1.2 CALM 0 0 0 0 1010.6 - 17.2
23/08:00am 25.6 32.1 25.0 96 0.4 CALM 0 0 0 0 1010.2 - 17.2
23/07:30am 25.0 31.2 24.6 98 0.3 CALM 0 0 0 0 1010.0 - 17.2
23/07:00am 24.5 30.4 24.1 98 0.3 CALM 0 0 0 0 1009.5 - 17.2
23/06:30am 24.5 30.4 24.1 98 0.3 CALM 0 0 0 0 1009.4 - 17.2
23/06:00am 24.3 30.1 23.9 98 0.3 WSW 0 0 0 0 1009.4 1009.0 17.2
23/05:30am 24.2 29.2 23.9 98 0.2 WSW 4 6 2 3 1008.9 - 17.2
23/05:00am 24.2 29.9 23.8 98 0.3 CALM 0 0 0 0 1008.3 - 17.2
23/04:30am 24.3 30.1 23.9 98 0.3 CALM 0 0 0 0 1007.5 - 17.2
23/04:00am 24.6 29.4 24.2 98 0.3 N 6 7 3 4 1007.7 - 17.2
23/03:30am 24.7 29.4 24.0 96 0.5 NNW 6 9 3 5 1008.7 - 16.8
23/03:00am 24.7 28.1 24.0 96 0.5 NNW 13 17 7 9 1008.6 1008.2 16.8
23/02:57am 24.7 28.1 24.0 96 0.5 NNW 13 19 7 10 1008.6 - 16.8
23/02:32am 24.9 27.3 24.3 96 0.4 NNW 19 24 10 13 1008.6 - 16.8
23/02:30am 24.9 27.3 24.3 96 0.4 NNW 19 24 10 13 1008.6 - 16.8
23/02:26am 25.0 27.8 24.3 96 0.5 NNW 17 22 9 12 1008.7 - 16.8
23/02:09am 25.1 28.0 24.4 96 0.5 N 17 22 9 12 1009.0 - 16.8
23/02:00am 25.0 27.9 24.4 96 0.4 N 17 22 9 12 1009.2 - 16.6
23/01:30am 24.6 30.6 24.2 98 0.3 CALM 0 6 0 3 1009.3 - 16.6
23/01:22am 24.6 29.4 24.2 98 0.3 NNW 6 9 3 5 1009.3 - 16.6
23/01:03am 24.6 29.4 24.2 98 0.3 E 6 20 3 11 1009.9 - 16.4
23/01:00am 24.7 30.7 24.3 98 0.3 CALM 0 9 0 5 1009.8 - 16.2
23/12:50am 24.7 30.0 24.3 98 0.3 ESE 4 7 2 4 1009.9 - 16.0
23/12:30am 24.4 30.2 24.0 98 0.3 CALM 0 0 0 0 1010.2 - 15.6
23/12:25am 24.5 30.3 23.9 96 0.4 CALM 0 0 0 0 1010.3 - 15.0
23/12:00am 24.3 28.4 23.9 98 0.3 SSE 9 11 5 6 1010.5 1010.1 14.6
 
Date/Time
CST
Temp
°C
App
Temp
°C
Dew
Point
Rel
Hum
%
Delta-T
°C
Wind Press
QNH
hPa
Press
MSL
hPa
Rain
since 9 am
mm
Dir
 
Spd
km/h
Gust
km/h
Spd
kts
Gust
kts
22/11:33pm 24.2 28.1 23.6 96 0.4 SSE 9 11 5 6 1010.4 - 14.6
22/11:30pm 24.1 28.1 23.7 98 0.3 S 9 11 5 6 1010.3 - 14.6
22/11:00pm 24.3 27.6 23.9 98 0.3 NW 13 20 7 11 1010.6 - 13.0
22/10:35pm 24.6 28.4 23.4 93 0.8 N 9 11 5 6 1010.5 - 10.6
22/10:30pm 24.6 28.5 23.6 94 0.7 NNE 9 11 5 6 1010.6 - 10.6
22/10:14pm 24.6 27.8 23.7 95 0.6 ENE 13 20 7 11 1010.6 - 10.6
22/10:00pm 24.8 28.1 23.9 95 0.6 E 13 20 7 11 1010.5 - 10.6
22/09:30pm 24.7 29.2 24.0 96 0.5 E 7 9 4 5 1010.6 - 10.4
22/09:00pm 24.9 28.8 24.2 96 0.5 ESE 11 15 6 8 1010.3 1009.9 10.4
22/08:30pm 25.2 29.3 24.5 96 0.5 E 11 15 6 8 1010.3 - 10.4
22/08:00pm 25.3 30.8 24.6 96 0.5 SSE 4 7 2 4 1009.8 - 10.4
22/07:30pm 25.2 31.4 24.6 96 0.4 CALM 0 0 0 0 1009.3 - 10.4
22/07:00pm 25.5 30.6 24.6 95 0.6 E 6 9 3 5 1009.2 - 10.4
22/06:30pm 25.6 30.5 24.7 95 0.6 ENE 7 11 4 6 1009.0 - 10.4
22/06:00pm 25.7 30.3 24.7 94 0.7 NE 9 13 5 7 1008.9 1008.5 10.4
22/05:30pm 25.9 30.1 24.8 94 0.8 NE 11 15 6 8 1008.8 - 10.4
22/05:00pm 26.1 30.5 25.0 94 0.8 NE 11 13 6 7 1008.6 - 10.2
22/04:30pm 26.1 31.1 24.8 92 0.9 NE 7 9 4 5 1008.3 - 10.0
22/04:00pm 26.1 32.2 25.0 94 0.8 NE 2 11 1 6 1008.3 - 10.0
22/03:30pm 26.1 31.4 25.0 94 0.8 NE 6 11 3 6 1008.2 - 9.8
22/03:21pm 26.1 30.8 25.0 94 0.8 NE 9 11 5 6 1008.1 - 9.8
22/03:00pm 26.4 32.3 25.3 94 0.8 ENE 4 9 2 5 1008.2 1007.9 9.8
22/02:50pm 26.3 32.6 25.4 95 0.6 NE 2 6 1 3 1008.2 - 9.8
22/02:34pm 26.1 32.7 25.2 95 0.6 CALM 0 0 0 0 1008.1 - 9.8
22/02:30pm 26.1 32.7 25.2 95 0.6 CALM 0 0 0 0 1008.1 - 9.8
22/02:27pm 26.1 32.7 25.2 95 0.6 CALM 0 0 0 0 1008.2 - 9.8
22/02:00pm 26.0 32.1 25.0 94 0.7 NE 2 9 1 5 1008.1 - 9.2
22/01:53pm 26.0 31.3 24.9 94 0.8 NNE 6 9 3 5 1008.1 - 8.8
22/01:43pm 26.1 31.2 25.0 94 0.8 NNE 7 11 4 6 1008.1 - 8.2
22/01:35pm 26.0 30.7 24.9 94 0.8 NNE 9 15 5 8 1008.0 - 8.2
22/01:31pm 25.9 30.2 24.9 94 0.7 NE 11 17 6 9 1008.0 - 8.2
22/01:30pm 26.0 30.3 24.9 94 0.8 NE 11 17 6 9 1008.1 - 8.2
22/01:00pm 26.4 30.6 24.7 90 1.2 NNE 11 17 6 9 1008.7 - 8.0
22/12:59pm 26.4 30.6 24.7 90 1.2 NNE 11 17 6 9 1008.7 - 8.0
22/12:30pm 26.5 29.7 24.9 91 1.1 N 17 22 9 12 1009.1 - 8.0
22/12:00pm 26.2 29.9 25.2 94 0.7 NNE 15 20 8 11 1009.2 1008.8 8.0
22/11:38am 25.6 29.1 24.9 96 0.5 NE 15 20 8 11 1009.7 - 7.8
22/11:30am 25.9 30.0 25.2 96 0.5 NNE 13 20 7 11 1009.9 - 7.8
22/11:25am 25.7 29.6 24.8 95 0.6 NNE 13 17 7 9 1010.0 - 7.8
22/11:00am 25.1 26.7 24.5 96 0.4 NNE 24 35 13 19 1010.6 - 7.6
22/10:30am 25.0 27.7 24.1 95 0.6 N 17 22 9 12 1011.0 - 4.4
22/10:05am 26.4 29.2 25.0 92 1.0 NE 19 28 10 15 1010.7 - 0.0
22/10:00am 26.4 29.6 25.0 92 1.0 ENE 17 28 9 15 1010.7 - 0.0
22/09:32am 25.7 29.9 24.7 94 0.7 ENE 11 19 6 10 1011.0 - 0.0
22/09:25am 25.6 29.8 24.7 95 0.6 NE 11 15 6 8 1011.0 - 0.0
22/09:00am 24.9 29.0 24.5 98 0.3 NNE 11 13 6 7 1010.9 1010.5 43.4
22/08:30am 24.7 27.1 24.3 98 0.3 NE 19 24 10 13 1011.0 - 39.4
22/08:15am 25.6 29.9 24.9 96 0.5 NE 11 19 6 10 1011.0 - 21.4
22/08:09am 25.7 30.4 25.0 96 0.5 NNE 9 17 5 9 1011.0 - 21.4
22/08:00am 25.8 30.1 24.9 95 0.6 N 11 13 6 7 1010.7 - 21.4
22/07:47am 25.7 29.5 24.7 94 0.7 NNE 13 19 7 10 1010.6 - 21.4
22/07:30am 25.6 29.8 24.7 95 0.6 N 11 15 6 8 1010.5 - 21.0
22/07:23am 25.4 29.6 24.7 96 0.5 NNE 11 13 6 7 1010.4 - 21.0
22/07:00am 25.1 29.5 24.5 96 0.4 N 9 11 5 6 1010.0 - 21.0
22/06:50am 25.0 29.4 24.4 96 0.4 NNE 9 13 5 7 1010.1 - 21.0
22/06:46am 24.9 29.3 24.5 98 0.3 NNE 9 13 5 7 1010.1 - 20.6
22/06:30am 24.9 29.9 24.5 98 0.3 NE 6 13 3 7 1009.8 - 11.6
22/06:29am 24.9 30.2 24.3 96 0.4 ENE 4 9 2 5 1009.8 - 11.0
22/06:24am 24.8 30.8 24.2 96 0.4 CALM 0 6 0 3 1009.6 - 10.4
22/06:17am 24.8 30.8 24.2 96 0.4 CALM 0 7 0 4 1009.5 - 10.0
22/06:00am 24.6 30.1 24.0 96 0.4 E 2 7 1 4 1009.4 1009.0 9.8
22/05:55am 24.5 29.9 23.9 96 0.4 SE 2 7 1 4 1009.4 - 9.8
22/05:35am 24.3 28.8 23.6 96 0.5 SSE 6 7 3 4 1009.2 - 9.4
22/05:30am 24.3 28.6 23.6 96 0.5 SE 7 9 4 5 1009.3 - 9.4
22/05:00am 24.7 25.4 23.7 94 0.7 E 26 39 14 21 1009.5 - 4.6
22/04:52am 25.8 28.3 24.5 92 0.9 E 19 39 10 21 1009.5 - 4.0
22/04:49am 26.2 29.6 24.6 91 1.1 E 15 20 8 11 1009.4 - 3.6
22/04:42am 26.2 29.8 24.3 89 1.3 E 13 19 7 10 1009.3 - 3.2
22/04:30am 26.2 29.2 24.0 88 1.5 E 15 20 8 11 1009.3 - 3.2
22/04:00am 25.9 28.5 24.0 89 1.3 E 17 22 9 12 1008.9 - 3.2
22/03:30am 25.9 28.1 24.2 90 1.2 ESE 20 26 11 14 1009.1 - 3.2
22/03:11am 26.6 26.4 24.3 87 1.6 ESE 33 39 18 21 1009.2 - 3.2
22/03:00am 26.5 30.2 24.5 89 1.4 SE 13 20 7 11 1009.3 1008.9 3.2
22/02:30am 26.2 29.7 24.8 92 1.0 SE 15 19 8 10 1009.3 - 3.0
22/02:13am 26.1 29.0 24.5 91 1.1 SE 17 26 9 14 1009.4 - 3.0
22/02:00am 25.8 28.7 24.5 92 0.9 SSE 17 30 9 16 1009.7 - 3.0
22/01:54am 25.4 29.4 24.4 94 0.7 SSE 11 19 6 10 1009.7 - 3.0
22/01:30am 25.3 28.2 23.8 91 1.0 SE 15 20 8 11 1009.9 - 2.4
22/01:00am 25.5 29.6 24.5 94 0.7 SSE 11 17 6 9 1010.3 - 2.4
22/12:30am 25.6 28.0 24.6 94 0.7 E 20 28 11 15 1010.5 - 1.4
22/12:25am 25.9 28.9 24.0 89 1.3 SSE 15 28 8 15 1010.5 - 0.8
22/12:00am 27.2 31.0 24.0 83 2.2 SE 11 15 6 8 1010.5 1010.1 0.2
 
Date/Time
CST
Temp
°C
App
Temp
°C
Dew
Point
Rel
Hum
%
Delta-T
°C
Wind Press
QNH
hPa
Press
MSL
hPa
Rain
since 9 am
mm
Dir
 
Spd
km/h
Gust
km/h
Spd
kts
Gust
kts
21/11:30pm 27.4 30.7 23.9 81 2.4 SE 13 19 7 10 1010.7 - 0.2
21/11:00pm 27.2 30.6 24.0 83 2.2 SE 13 20 7 11 1010.6 - 0.2
21/10:30pm 27.3 30.7 24.0 82 2.3 SE 13 19 7 10 1010.5 - 0.2
21/10:00pm 27.2 30.1 23.9 82 2.3 SE 15 22 8 12 1010.6 - 0.2
21/09:30pm 27.2 30.1 23.9 82 2.3 SE 15 20 8 11 1010.7 - 0.2
21/09:00pm 27.2 30.5 23.9 82 2.3 SE 13 22 7 12 1010.8 1010.4 0.2
21/08:30pm 27.0 30.4 24.0 83 2.1 SE 13 20 7 11 1010.7 - 0.2
21/08:00pm 26.8 29.7 23.9 84 2.0 SE 15 19 8 10 1010.4 - 0.2
21/07:30pm 26.3 30.2 24.3 89 1.4 SSE 11 17 6 9 1010.2 - 0.2
21/07:00pm 26.5 30.6 24.0 86 1.7 SSE 9 13 5 7 1010.0 - 0.2
21/06:30pm 27.5 30.1 23.3 78 2.9 SE 15 17 8 9 1009.9 - 0.2
21/06:00pm 27.8 29.7 22.8 74 3.4 SE 17 24 9 13 1009.7 1009.3 0.2
21/05:30pm 28.1 29.8 23.1 74 3.4 SE 19 26 10 14 1009.3 - 0.2
21/05:00pm 28.6 30.7 23.1 72 3.8 SE 17 22 9 12 1009.2 - 0.2
21/04:30pm 28.9 29.9 22.9 70 4.1 ESE 22 30 12 16 1009.3 - 0.2
21/04:00pm 29.3 30.8 22.7 67 4.5 ESE 19 28 10 15 1009.3 - 0.2
21/03:30pm 29.5 30.5 22.1 64 5.0 ESE 20 26 11 14 1009.2 - 0.2
21/03:00pm 30.0 30.3 21.5 60 5.7 ESE 22 32 12 17 1009.1 1008.7 0.2
21/02:30pm 30.4 30.8 21.7 59 5.9 ESE 22 32 12 17 1009.2 - 0.2
21/02:00pm 29.9 29.7 22.1 63 5.3 ESE 26 32 14 17 1009.3 - 0.2
21/01:30pm 30.0 29.5 21.5 60 5.7 ESE 26 33 14 18 1009.7 - 0.2
21/01:00pm 30.6 30.2 21.7 59 6.0 E 26 35 14 19 1009.7 - 0.2
21/12:30pm 30.5 31.4 21.9 60 5.8 E 20 28 11 15 1009.9 - 0.2
21/12:00pm 30.3 29.4 21.5 59 5.9 E 28 41 15 22 1010.5 1010.1 0.2
21/11:30am 30.1 29.1 22.0 62 5.5 E 30 41 16 22 1011.0 - 0.2
21/11:00am 30.0 30.1 22.5 64 5.1 ESE 26 33 14 18 1011.4 - 0.2
21/10:30am 30.1 29.6 22.1 62 5.4 E 28 37 15 20 1011.8 - 0.0
21/10:00am 29.7 29.5 22.0 63 5.2 E 26 35 14 19 1011.5 - 0.0
21/09:30am 29.3 29.7 22.4 66 4.7 E 24 33 13 18 1011.5 - 0.0
21/09:00am 28.6 29.8 23.2 72 3.7 E 22 32 12 17 1011.2 1010.8 0.4
21/08:30am 27.9 28.9 22.9 74 3.4 E 22 30 12 16 1010.9 - 0.4
21/08:00am 27.7 29.5 23.3 77 3.0 E 19 28 10 15 1010.6 - 0.4
21/07:30am 26.9 29.5 23.9 83 2.1 E 17 24 9 13 1010.6 - 0.4
21/07:00am 26.2 29.0 24.3 89 1.3 E 17 22 9 12 1010.5 - 0.4
21/06:57am 26.1 29.0 24.4 90 1.2 E 17 28 9 15 1010.4 - 0.4
21/06:42am 27.4 28.4 22.2 73 3.5 ESE 20 26 11 14 1010.1 - 0.0
21/06:30am 27.2 28.1 22.0 73 3.5 ESE 20 28 11 15 1010.0 - 0.0
21/06:00am 27.1 28.5 21.9 73 3.5 ESE 17 22 9 12 1009.7 1009.3 0.0
21/05:30am 26.9 28.6 21.7 73 3.5 SE 15 19 8 10 1009.5 - 0.0
21/05:00am 26.5 28.2 21.6 74 3.3 SE 15 19 8 10 1009.4 - 0.0
21/04:30am 26.5 28.6 21.7 75 3.2 SE 13 17 7 9 1009.3 - 0.0
21/04:00am 26.6 28.3 21.7 74 3.3 SE 15 20 8 11 1009.3 - 0.0
21/03:30am 26.6 28.2 21.5 73 3.4 SE 15 19 8 10 1009.6 - 0.0
21/03:00am 26.7 28.2 21.3 72 3.6 SE 15 20 8 11 1009.4 1009.0 0.0

Other Formats:

Comma delimited format used in spreadsheet applications
http://www.bom.gov.au/fwo/IDD60801/IDD60801.94150.axf

JavaScript Object Notation format (JSON) in row-major order
http://www.bom.gov.au/fwo/IDD60801/IDD60801.94150.json